Time;durP1;ratioP1;P1;durP2;ratioP2;P2;SDS_P1;SDS_P2;PMS_P1;PMS_P2;Temp;Humidity;BMP_temperature;BMP_pressure;BME280_temperature;BME280_humidity;BME280_pressure;Samples;Min_cycle;Max_cycle;Signal;HPM_P1;HPM_P2
2023/10/05 00:02:05;;;;;;;15.40;3.80;;;;;;;11.65;100.00;101215.66;5023696;28;20429;-90
2023/10/05 00:04:45;;;;;;;11.98;3.33;;;;;;;11.64;100.00;101210.50;5034182;28;20442;-88
2023/10/05 00:07:19;;;;;;;11.57;3.22;;;;;;;11.63;100.00;101209.69;5042738;28;20737;-88
2023/10/05 00:09:49;;;;;;;12.00;3.30;;;;;;;11.67;100.00;101204.50;5035519;28;20846;-88
2023/10/05 00:12:22;;;;;;;11.65;3.28;;;;;;;11.71;100.00;101194.66;5032795;28;20427;-87
2023/10/05 00:15:08;;;;;;;12.75;3.47;;;;;;;11.74;100.00;101202.31;5030365;28;21093;-88
2023/10/05 00:17:38;;;;;;;13.68;3.33;;;;;;;11.70;100.00;101199.31;5028413;28;20430;-88
2023/10/05 00:20:09;;;;;;;11.40;3.63;;;;;;;11.63;100.00;101197.94;5048776;28;20433;-87
2023/10/05 00:22:40;;;;;;;12.23;3.25;;;;;;;11.65;100.00;101191.13;5047454;28;20775;-89
2023/10/05 00:25:11;;;;;;;11.57;3.20;;;;;;;11.71;100.00;101190.06;5035392;28;20514;-90
2023/10/05 00:27:40;;;;;;;11.80;3.60;;;;;;;11.63;100.00;101178.88;5028674;28;20423;-90
2023/10/05 00:30:12;;;;;;;11.35;3.10;;;;;;;11.73;100.00;101185.13;5029232;28;20456;-89
2023/10/05 00:32:49;;;;;;;15.05;3.10;;;;;;;11.81;100.00;101174.78;5025696;28;20409;-87
2023/10/05 00:35:24;;;;;;;11.48;3.50;;;;;;;11.85;100.00;101175.84;5027641;28;20419;-88
2023/10/05 00:37:52;;;;;;;12.20;3.50;;;;;;;11.83;100.00;101167.94;5028319;28;20436;-87
2023/10/05 00:40:35;;;;;;;14.73;3.75;;;;;;;11.80;100.00;101164.94;5036722;28;20415;-88
2023/10/05 00:43:07;;;;;;;14.27;3.60;;;;;;;11.87;100.00;101176.38;5023901;28;20419;-89
2023/10/05 00:45:38;;;;;;;14.23;3.47;;;;;;;11.98;100.00;101180.75;5028648;28;20514;-88
2023/10/05 00:48:19;;;;;;;13.85;3.25;;;;;;;11.97;100.00;101167.38;5025019;28;20903;-87
2023/10/05 00:50:51;;;;;;;13.20;3.20;;;;;;;12.03;100.00;101156.19;5022501;28;21064;-88
2023/10/05 00:53:20;;;;;;;14.13;3.72;;;;;;;11.96;100.00;101152.94;5017377;28;20434;-89
2023/10/05 00:56:04;;;;;;;12.60;3.38;;;;;;;11.95;100.00;101156.75;5019783;28;20439;-87
2023/10/05 00:58:38;;;;;;;10.27;3.00;;;;;;;11.92;100.00;101135.47;5025688;28;20434;-89
2023/10/05 01:01:08;;;;;;;12.52;3.42;;;;;;;11.87;100.00;101139.00;5043963;28;20435;-88
2023/10/05 01:03:59;;;;;;;12.07;3.33;;;;;;;11.86;100.00;101140.13;5043241;28;20434;-89
2023/10/05 01:06:41;;;;;;;9.55;3.20;;;;;;;11.88;100.00;101134.38;5026756;28;20407;-89
2023/10/05 01:09:14;;;;;;;10.03;3.37;;;;;;;11.93;100.00;101128.09;5038996;28;20419;-87
2023/10/05 01:11:54;;;;;;;13.68;3.30;;;;;;;11.91;100.00;101134.63;5029088;28;20428;-88
2023/10/05 01:14:25;;;;;;;12.70;3.40;;;;;;;12.07;100.00;101129.19;5044892;28;20417;-89
2023/10/05 01:16:54;;;;;;;12.07;3.25;;;;;;;12.03;100.00;101142.53;5026390;28;20432;-89
2023/10/05 01:19:23;;;;;;;10.23;2.92;;;;;;;11.95;100.00;101129.47;5029156;28;20426;-90
2023/10/05 01:21:51;;;;;;;15.23;3.30;;;;;;;11.93;100.00;101136.28;5037706;28;20434;-88
2023/10/05 01:24:23;;;;;;;11.23;3.13;;;;;;;12.01;100.00;101139.25;5028574;28;20427;-88
2023/10/05 01:26:51;;;;;;;12.77;2.93;;;;;;;12.03;100.00;101133.56;5032569;28;20423;-90
2023/10/05 01:29:25;;;;;;;13.68;3.25;;;;;;;12.02;100.00;101131.91;5046181;28;20439;-87
2023/10/05 01:31:53;;;;;;;13.60;3.50;;;;;;;12.05;100.00;101134.09;5035866;28;20986;-90
2023/10/05 01:34:21;;;;;;;10.38;2.88;;;;;;;12.10;100.00;101133.22;5028100;28;20425;-88
2023/10/05 01:36:55;;;;;;;11.63;2.97;;;;;;;12.03;100.00;101125.38;5040795;28;20787;-89
2023/10/05 01:39:25;;;;;;;10.05;3.20;;;;;;;12.16;100.00;101126.69;5036852;28;21069;-88
2023/10/05 01:41:56;;;;;;;15.77;3.55;;;;;;;12.06;100.00;101122.09;5040193;28;20902;-89
2023/10/05 01:44:30;;;;;;;13.48;3.20;;;;;;;12.03;100.00;101117.19;5036608;28;20927;-89
2023/10/05 01:46:58;;;;;;;10.73;2.90;;;;;;;12.08;100.00;101115.25;5021903;28;20906;-89
2023/10/05 01:49:27;;;;;;;12.88;2.90;;;;;;;12.13;100.00;101119.06;5035356;28;20415;-87
2023/10/05 01:52:00;;;;;;;11.80;3.05;;;;;;;12.07;100.00;101126.44;5041078;28;20449;-86
2023/10/05 01:54:34;;;;;;;11.43;2.90;;;;;;;12.12;100.00;101122.88;5046582;28;21189;-87
2023/10/05 01:57:07;;;;;;;11.43;3.05;;;;;;;12.12;100.00;101118.22;5044589;28;20995;-88
2023/10/05 01:59:37;;;;;;;12.82;2.90;;;;;;;12.12;100.00;101117.41;5042830;28;20470;-87
2023/10/05 02:02:09;;;;;;;12.15;2.95;;;;;;;12.21;100.00;101122.00;5030076;28;20413;-87
2023/10/05 02:04:44;;;;;;;10.27;3.08;;;;;;;11.97;100.00;101116.38;5034755;28;20435;-87
2023/10/05 02:07:15;;;;;;;12.70;3.10;;;;;;;12.14;100.00;101113.31;5031091;28;21372;-87
2023/10/05 02:09:45;;;;;;;13.65;3.38;;;;;;;12.04;100.00;101102.44;5019094;28;20412;-89
2023/10/05 02:12:14;;;;;;;9.30;2.50;;;;;;;12.13;100.00;101108.16;5030491;28;21306;-88
2023/10/05 02:14:42;;;;;;;12.00;2.90;;;;;;;12.23;100.00;101111.63;5029027;28;20417;-88
2023/10/05 02:17:16;;;;;;;11.05;2.97;;;;;;;12.16;100.00;101102.94;5040654;28;20430;-87
2023/10/05 02:19:44;;;;;;;11.68;2.60;;;;;;;12.16;100.00;101113.03;5037687;28;20416;-87
2023/10/05 02:22:14;;;;;;;8.07;2.55;;;;;;;12.22;100.00;101101.00;5024837;28;20438;-90
2023/10/05 02:24:44;;;;;;;10.48;2.67;;;;;;;12.17;100.00;101093.66;5052344;28;20434;-89
2023/10/05 02:27:13;;;;;;;10.07;2.67;;;;;;;12.20;100.00;101097.75;5027066;28;20419;-87
2023/10/05 02:29:43;;;;;;;11.88;2.78;;;;;;;12.20;100.00;101084.91;5025831;28;20423;-89
2023/10/05 02:32:21;;;;;;;12.10;2.50;;;;;;;12.11;100.00;101086.59;5038407;28;20441;-88
2023/10/05 02:34:59;;;;;;;14.05;2.88;;;;;;;12.14;100.00;101064.22;5044854;28;20910;-88
2023/10/05 02:37:28;;;;;;;11.38;2.95;;;;;;;12.18;100.00;101059.00;5037211;28;20424;-89
2023/10/05 02:40:08;;;;;;;9.52;2.72;;;;;;;12.03;100.00;101087.19;5022023;28;20426;-87
2023/10/05 02:42:39;;;;;;;7.32;2.30;;;;;;;12.02;100.00;101078.16;5035080;28;20419;-88
2023/10/05 02:45:11;;;;;;;10.18;2.47;;;;;;;12.06;100.00;101079.25;5045418;28;20898;-88
2023/10/05 02:47:44;;;;;;;11.82;2.97;;;;;;;12.00;100.00;101076.81;5023712;28;20430;-88
2023/10/05 02:50:18;;;;;;;11.90;2.80;;;;;;;11.99;100.00;101078.72;5030276;28;20426;-89
2023/10/05 02:52:52;;;;;;;12.80;2.83;;;;;;;11.95;100.00;101071.41;5029363;28;20436;-90
2023/10/05 02:55:23;;;;;;;10.50;2.63;;;;;;;12.08;100.00;101071.59;5029760;28;20423;-88
2023/10/05 02:57:51;;;;;;;9.32;2.53;;;;;;;12.00;100.00;101064.00;5022960;28;20426;-87
2023/10/05 03:00:20;;;;;;;8.50;2.40;;;;;;;11.77;100.00;101057.25;5027295;28;20415;-88
2023/10/05 03:02:54;;;;;;;10.50;2.70;;;;;;;11.84;100.00;101068.66;5041938;28;20410;-91
2023/10/05 03:05:25;;;;;;;12.65;2.53;;;;;;;11.84;100.00;101063.22;5038962;28;20446;-87
2023/10/05 03:07:58;;;;;;;11.02;2.50;;;;;;;11.78;100.00;101066.22;5046228;28;20423;-86
2023/10/05 03:10:33;;;;;;;11.68;2.78;;;;;;;11.78;100.00;101060.78;5041399;28;20433;-90
2023/10/05 03:13:02;;;;;;;11.90;2.80;;;;;;;11.99;100.00;101050.66;5027023;28;20417;-89
2023/10/05 03:15:34;;;;;;;11.55;3.00;;;;;;;11.86;100.00;101044.69;5025687;28;20422;-87
2023/10/05 03:18:02;;;;;;;6.55;2.25;;;;;;;11.84;100.00;101048.78;5046132;28;20426;-89
2023/10/05 03:20:35;;;;;;;11.55;2.63;;;;;;;11.80;100.00;101064.06;5033944;28;20427;-84
2023/10/05 03:23:04;;;;;;;10.37;2.83;;;;;;;11.78;100.00;101042.53;5044107;28;20498;-89
2023/10/05 03:25:40;;;;;;;11.57;2.58;;;;;;;11.89;100.00;101040.53;5024207;28;20904;-89
2023/10/05 03:28:10;;;;;;;8.73;2.53;;;;;;;11.80;100.00;101047.69;5031593;28;20997;-88
2023/10/05 03:30:48;;;;;;;11.48;2.75;;;;;;;11.89;100.00;101041.38;5029487;28;20404;-87
2023/10/05 03:33:17;;;;;;;10.85;2.63;;;;;;;11.85;100.00;101040.31;5036081;28;20434;-87
2023/10/05 03:35:47;;;;;;;10.15;2.45;;;;;;;11.83;100.00;101034.31;5030712;28;20422;-88
2023/10/05 03:38:19;;;;;;;10.35;2.72;;;;;;;11.86;100.00;101033.78;5046238;28;20430;-87
2023/10/05 03:40:49;;;;;;;9.32;2.60;;;;;;;11.93;100.00;101033.44;5046226;28;20426;-89
2023/10/05 03:43:23;;;;;;;13.60;2.85;;;;;;;11.90;100.00;101023.94;5029360;28;21391;-88
2023/10/05 03:45:51;;;;;;;11.50;2.88;;;;;;;11.84;100.00;101024.22;5035539;28;20893;-88
2023/10/05 03:48:26;;;;;;;10.48;2.70;;;;;;;11.83;100.00;101019.88;5043924;28;20423;-88
2023/10/05 03:50:55;;;;;;;10.85;2.75;;;;;;;11.96;100.00;101013.00;5039373;28;21138;-89
2023/10/05 03:53:24;;;;;;;9.75;2.42;;;;;;;11.89;100.00;101021.47;5045216;28;20427;-86
2023/10/05 03:55:59;;;;;;;12.52;2.85;;;;;;;11.87;100.00;101007.31;5026741;28;20427;-88
2023/10/05 03:58:27;;;;;;;8.43;2.53;;;;;;;11.82;100.00;101013.59;5013754;28;20477;-88
2023/10/05 04:00:58;;;;;;;9.52;2.72;;;;;;;11.95;100.00;101019.56;5032118;28;21306;-90
2023/10/05 04:03:26;;;;;;;10.82;2.75;;;;;;;11.86;100.00;101020.13;5024395;28;20505;-85
2023/10/05 04:06:00;;;;;;;10.05;2.63;;;;;;;12.01;100.00;101012.97;5029458;28;20776;-88
2023/10/05 04:08:31;;;;;;;14.00;3.15;;;;;;;11.99;100.00;101015.19;5041547;28;20421;-86
2023/10/05 04:11:03;;;;;;;14.73;3.20;;;;;;;12.01;100.00;101012.97;5042824;28;20415;-86
2023/10/05 04:13:33;;;;;;;9.35;2.90;;;;;;;12.04;100.00;101020.59;5027057;28;20426;-87
2023/10/05 04:16:10;;;;;;;9.40;2.72;;;;;;;12.07;100.00;101020.88;5043970;28;20417;-86
2023/10/05 04:18:39;;;;;;;12.02;3.25;;;;;;;12.06;100.00;101021.94;5043233;28;20443;-87
2023/10/05 04:21:07;;;;;;;11.40;3.20;;;;;;;12.07;100.00;101023.59;5032414;28;20414;-88
2023/10/05 04:23:35;;;;;;;11.38;3.00;;;;;;;12.06;100.00;101026.59;5045616;28;20421;-86
2023/10/05 04:26:08;;;;;;;14.10;3.10;;;;;;;12.04;100.00;101024.16;5050229;28;20443;-87
2023/10/05 04:28:51;;;;;;;12.52;2.70;;;;;;;12.12;100.00;101022.72;5031654;28;20415;-87
2023/10/05 04:31:22;;;;;;;10.15;3.15;;;;;;;12.12;100.00;101028.19;5040136;28;20431;-89
2023/10/05 04:33:51;;;;;;;12.73;3.03;;;;;;;12.14;100.00;101039.66;5033648;28;20407;-87
2023/10/05 04:36:22;;;;;;;13.65;3.28;;;;;;;12.20;100.00;101038.50;5023899;28;20429;-87
2023/10/05 04:38:53;;;;;;;9.13;2.63;;;;;;;12.14;100.00;101042.38;5048720;28;20439;-87
2023/10/05 04:41:28;;;;;;;11.07;3.00;;;;;;;12.09;100.00;101039.69;5040424;28;20420;-87
2023/10/05 04:44:01;;;;;;;11.98;3.42;;;;;;;12.12;100.00;101036.38;5032199;28;20431;-87
2023/10/05 04:46:34;;;;;;;11.95;2.78;;;;;;;12.25;100.00;101026.78;5039156;28;20431;-87
2023/10/05 04:49:08;;;;;;;10.53;2.97;;;;;;;12.21;100.00;101023.78;5026476;28;20523;-86
2023/10/05 04:51:38;;;;;;;9.63;2.70;;;;;;;12.21;100.00;101025.72;5027965;28;20407;-86
2023/10/05 04:54:10;;;;;;;9.27;2.85;;;;;;;12.34;100.00;101030.50;5032870;28;20431;-86
2023/10/05 04:57:02;;;;;;;11.45;2.70;;;;;;;12.22;100.00;101022.69;5031911;28;20438;-88
2023/10/05 04:59:58;;;;;;;11.75;2.90;;;;;;;12.33;100.00;101026.19;5040921;28;20779;-86
2023/10/05 05:02:36;;;;;;;9.80;2.67;;;;;;;12.29;100.00;101019.66;5039733;28;20454;-89
2023/10/05 05:05:21;;;;;;;14.02;2.80;;;;;;;12.23;100.00;101018.84;5045797;28;20487;-88
2023/10/05 05:07:55;;;;;;;11.40;2.90;;;;;;;12.24;100.00;101039.59;5024977;28;20419;-86
2023/10/05 05:10:28;;;;;;;11.25;2.85;;;;;;;12.27;100.00;101030.03;5044682;28;20421;-86
2023/10/05 05:12:58;;;;;;;13.33;3.00;;;;;;;12.17;100.00;101028.16;5039897;28;20440;-86
2023/10/05 05:15:35;;;;;;;12.37;2.90;;;;;;;12.07;100.00;101029.06;5029811;28;20445;-86
2023/10/05 05:18:03;;;;;;;13.77;3.25;;;;;;;12.07;100.00;101025.50;5026659;28;20415;-88
2023/10/05 05:20:32;;;;;;;13.38;3.22;;;;;;;12.05;100.00;101025.78;5029566;28;20427;-87
2023/10/05 05:23:04;;;;;;;13.33;3.27;;;;;;;11.93;100.00;101029.91;5042236;28;20869;-86
2023/10/05 05:25:32;;;;;;;12.30;3.22;;;;;;;11.85;100.00;101036.78;5027771;28;20446;-86
2023/10/05 05:28:05;;;;;;;10.93;2.80;;;;;;;11.86;100.00;101031.03;5043823;28;20518;-86
2023/10/05 05:30:40;;;;;;;14.98;3.60;;;;;;;11.80;100.00;101018.50;5032023;28;20422;-86
2023/10/05 05:33:10;;;;;;;11.40;2.90;;;;;;;11.73;100.00;101024.25;5023396;28;20432;-85
2023/10/05 05:35:40;;;;;;;12.80;3.05;;;;;;;11.74;100.00;101020.44;5038118;28;20422;-86
2023/10/05 05:38:09;;;;;;;12.98;3.53;;;;;;;11.84;100.00;101016.84;5025781;28;20419;-86
2023/10/05 05:40:38;;;;;;;13.40;3.42;;;;;;;11.74;100.00;101033.28;5026597;28;20424;-87
2023/10/05 05:43:14;;;;;;;14.63;3.50;;;;;;;11.68;100.00;101018.84;5025538;28;20430;-87
2023/10/05 05:45:43;;;;;;;12.00;3.28;;;;;;;11.68;100.00;101018.84;5038859;28;20882;-86
2023/10/05 05:48:17;;;;;;;13.57;3.22;;;;;;;11.67;100.00;101024.56;5031247;28;20433;-88
2023/10/05 05:50:46;;;;;;;13.30;3.33;;;;;;;11.69;100.00;101033.28;5025014;28;20558;-86
2023/10/05 05:53:15;;;;;;;13.73;3.50;;;;;;;11.70;100.00;101033.00;5021868;28;20469;-88
2023/10/05 05:55:53;;;;;;;15.93;3.40;;;;;;;11.75;100.00;101029.44;5022416;28;20426;-85
2023/10/05 05:58:27;;;;;;;13.95;3.90;;;;;;;11.74;100.00;101025.09;5040743;28;20485;-85
2023/10/05 06:01:01;;;;;;;12.38;3.47;;;;;;;11.65;100.00;101030.28;5025210;28;20438;-86
2023/10/05 06:03:34;;;;;;;12.35;3.58;;;;;;;11.69;100.00;101033.28;5041365;28;20434;-86
2023/10/05 06:06:07;;;;;;;15.90;3.77;;;;;;;11.72;100.00;101038.16;5025038;28;20423;-85
2023/10/05 06:08:41;;;;;;;17.63;3.80;;;;;;;11.71;100.00;101044.72;5027203;28;20428;-84
2023/10/05 06:11:15;;;;;;;14.73;3.70;;;;;;;11.75;100.00;101043.06;5028994;28;20416;-87
2023/10/05 06:13:50;;;;;;;11.90;3.40;;;;;;;11.68;100.00;101051.56;5027271;28;20825;-87
2023/10/05 06:16:18;;;;;;;19.58;4.07;;;;;;;11.70;100.00;101043.09;5042676;28;20420;-85
2023/10/05 06:18:47;;;;;;;15.43;3.80;;;;;;;11.78;100.00;101050.72;5021110;28;20426;-85
2023/10/05 06:21:15;;;;;;;16.27;3.80;;;;;;;11.80;100.00;101050.44;5045362;28;20426;-86
2023/10/05 06:23:50;;;;;;;14.25;3.60;;;;;;;11.84;100.00;101056.97;5023402;28;20429;-86
2023/10/05 06:26:24;;;;;;;16.90;3.90;;;;;;;11.75;100.00;101056.69;5028640;28;20423;-85
2023/10/05 06:28:53;;;;;;;14.27;4.05;;;;;;;11.73;100.00;101051.53;5025923;28;20419;-86
2023/10/05 06:31:28;;;;;;;14.32;3.83;;;;;;;11.80;100.00;101062.13;5042822;28;20449;-86
2023/10/05 06:33:56;;;;;;;18.40;3.97;;;;;;;11.69;100.00;101049.63;5029489;28;20485;-85
2023/10/05 06:36:29;;;;;;;17.50;3.90;;;;;;;11.74;100.00;101063.25;5027033;28;20426;-85
2023/10/05 06:39:04;;;;;;;16.05;4.10;;;;;;;11.73;100.00;101058.91;5026852;28;20432;-85
2023/10/05 06:41:37;;;;;;;12.93;3.70;;;;;;;11.80;100.00;101075.78;5023467;28;20423;-84
2023/10/05 06:44:10;;;;;;;16.10;3.78;;;;;;;11.72;100.00;101073.63;5025583;28;20431;-84
2023/10/05 06:46:44;;;;;;;12.98;3.90;;;;;;;11.69;100.00;101072.25;5026603;28;20419;-89
2023/10/05 06:49:17;;;;;;;12.48;3.55;;;;;;;11.72;100.00;101090.81;5020441;28;20431;-89
2023/10/05 06:51:45;;;;;;;14.35;4.50;;;;;;;11.84;100.00;101092.41;5042866;28;20415;-86
2023/10/05 06:54:14;;;;;;;11.90;4.00;;;;;;;11.76;100.00;101099.22;5027953;28;20429;-88
2023/10/05 06:56:48;;;;;;;16.80;4.55;;;;;;;11.81;100.00;101103.88;5028126;28;20431;-87
2023/10/05 06:59:20;;;;;;;13.63;4.05;;;;;;;11.75;100.00;101105.78;5032702;28;20438;-88
2023/10/05 07:01:49;;;;;;;15.07;4.68;;;;;;;11.79;100.00;101104.13;5037523;28;20438;-86
2023/10/05 07:04:26;;;;;;;16.77;4.47;;;;;;;11.86;100.00;101118.31;5042039;28;20426;-88
2023/10/05 07:06:57;;;;;;;13.95;4.35;;;;;;;11.88;100.00;101116.09;5025144;28;20418;-87
2023/10/05 07:09:29;;;;;;;15.20;5.53;;;;;;;11.90;100.00;101113.09;5036700;28;20922;-87
2023/10/05 07:12:03;;;;;;;13.77;4.88;;;;;;;11.91;100.00;101115.53;5024763;28;20423;-87
2023/10/05 07:14:33;;;;;;;14.20;5.38;;;;;;;12.07;100.00;101119.06;5023359;28;20907;-86
2023/10/05 07:17:01;;;;;;;12.35;5.07;;;;;;;11.90;100.00;101124.84;5025829;28;20419;-87
2023/10/05 07:19:29;;;;;;;14.98;5.55;;;;;;;11.76;100.00;101131.97;4997956;28;20423;-89
2023/10/05 07:21:58;;;;;;;11.40;5.07;;;;;;;11.94;100.00;101151.56;5023775;28;20427;-88
2023/10/05 07:24:37;;;;;;;13.40;5.40;;;;;;;11.98;100.00;101145.28;5010436;28;20440;-88
2023/10/05 07:27:08;;;;;;;15.65;4.88;;;;;;;12.07;100.00;101153.72;5012229;28;20450;-89
2023/10/05 07:29:46;;;;;;;10.63;4.72;;;;;;;12.19;100.00;101153.41;5014174;28;20429;-89
2023/10/05 07:32:15;;;;;;;21.88;8.77;;;;;;;12.14;100.00;101153.41;5016493;28;20800;-89
2023/10/05 07:34:45;;;;;;;9.88;4.53;;;;;;;12.05;100.00;101158.63;5016180;28;20423;-88
2023/10/05 07:37:14;;;;;;;11.93;4.20;;;;;;;11.93;100.00;101164.34;5015516;28;20441;-88
2023/10/05 07:39:42;;;;;;;9.57;3.33;;;;;;;12.13;100.00;101165.44;5018020;28;20435;-88
2023/10/05 07:42:11;;;;;;;11.30;3.47;;;;;;;12.16;100.00;101162.16;5023079;28;21913;-87
2023/10/05 07:44:48;;;;;;;7.60;3.10;;;;;;;12.06;100.00;101163.00;5024813;28;20405;-88
2023/10/05 07:47:17;;;;;;;7.70;3.25;;;;;;;12.08;100.00;101175.28;5021335;28;20423;-88
2023/10/05 07:49:45;;;;;;;7.32;3.10;;;;;;;12.08;100.00;101190.81;5021448;28;20436;-88
2023/10/05 07:52:14;;;;;;;6.38;2.80;;;;;;;12.09;100.00;101192.44;5022935;28;20926;-88
2023/10/05 07:54:45;;;;;;;5.18;2.40;;;;;;;12.13;100.00;101192.72;5020427;28;20891;-89
2023/10/05 07:57:20;;;;;;;6.00;2.60;;;;;;;12.16;100.00;101194.88;5034753;28;20437;-88
2023/10/05 07:59:50;;;;;;;5.47;2.00;;;;;;;12.23;100.00;101188.03;5016443;28;20434;-88
2023/10/05 08:02:29;;;;;;;4.97;2.00;;;;;;;12.17;100.00;101182.88;5015456;28;20434;-89
2023/10/05 08:18:43;;;;;;;3.17;1.30;;;;;;;12.45;100.00;101191.50;4877767;29;20435;-90
2023/10/05 08:21:12;;;;;;;4.50;1.63;;;;;;;12.59;100.00;101198.81;4863681;28;20454;-91
2023/10/05 08:23:40;;;;;;;3.05;1.15;;;;;;;12.34;100.00;101207.91;5019968;28;20419;-89
2023/10/05 08:26:12;;;;;;;5.32;1.30;;;;;;;12.45;100.00;101213.34;5018856;28;20428;-89
2023/10/05 08:28:41;;;;;;;3.60;1.30;;;;;;;12.51;100.00;101217.69;5023973;28;20421;-88
2023/10/05 08:31:11;;;;;;;3.93;1.20;;;;;;;12.56;100.00;101225.84;5017805;28;20459;-89
2023/10/05 08:33:40;;;;;;;3.90;1.20;;;;;;;12.39;100.00;101218.00;5019514;28;20797;-89
2023/10/05 08:36:15;;;;;;;3.30;1.10;;;;;;;12.49;100.00;101225.34;5024790;28;20431;-91
2023/10/05 08:38:47;;;;;;;3.60;1.02;;;;;;;12.52;100.00;101230.22;5019263;28;21194;-90
2023/10/05 08:41:31;;;;;;;4.10;1.17;;;;;;;12.47;100.00;101238.44;5018863;28;20921;-89
2023/10/05 08:44:00;;;;;;;4.50;1.40;;;;;;;12.56;100.00;101228.59;5017034;28;20443;-88
2023/10/05 08:46:33;;;;;;;5.22;1.10;;;;;;;12.50;100.00;101235.16;5017809;28;20430;-89
2023/10/05 08:49:07;;;;;;;4.15;1.10;;;;;;;12.38;100.00;101238.22;5020388;28;20472;-89
2023/10/05 08:51:39;;;;;;;4.75;1.30;;;;;;;12.49;100.00;101236.25;5014649;28;20435;-89
2023/10/05 08:54:11;;;;;;;3.65;1.10;;;;;;;12.59;100.00;101247.97;5017879;28;21771;-91
2023/10/05 08:56:45;;;;;;;2.87;1.50;;;;;;;12.61;100.00;101255.03;5022111;28;20498;-88
2023/10/05 08:59:14;;;;;;;10.63;5.75;;;;;;;12.63;100.00;101256.41;5018485;28;20435;-88
2023/10/05 09:01:50;;;;;;;6.72;1.33;;;;;;;12.56;100.00;101266.81;5033368;28;21864;-88
2023/10/05 09:04:29;;;;;;;4.05;1.20;;;;;;;12.62;100.00;101262.13;5020408;28;20418;-88
2023/10/05 09:06:59;;;;;;;2.85;1.08;;;;;;;12.71;100.00;101255.00;5019403;28;20439;-89
2023/10/05 09:09:37;;;;;;;3.88;1.30;;;;;;;12.86;100.00;101257.66;5017535;28;20423;-88
2023/10/05 09:12:19;;;;;;;3.97;1.10;;;;;;;12.78;100.00;101260.97;5018580;28;20431;-89
2023/10/05 09:15:05;;;;;;;5.87;1.20;;;;;;;12.78;100.00;101277.38;5019423;28;21085;-89
2023/10/05 09:17:34;;;;;;;2.70;0.93;;;;;;;12.87;100.00;101280.31;5025132;28;20413;-90
2023/10/05 09:20:24;;;;;;;3.30;1.00;;;;;;;12.78;100.00;101280.09;5017862;28;20432;-90
2023/10/05 09:23:00;;;;;;;3.40;1.10;;;;;;;12.83;100.00;101276.50;5013629;28;20433;-89
2023/10/05 09:25:34;;;;;;;5.15;1.10;;;;;;;12.80;100.00;101291.56;5018025;28;20425;-88
2023/10/05 09:28:12;;;;;;;3.70;0.88;;;;;;;12.85;100.00;101294.25;5020385;28;21021;-91
2023/10/05 09:30:55;;;;;;;3.67;1.30;;;;;;;12.86;100.00;101293.16;5022866;28;20446;-91
2023/10/05 09:33:25;;;;;;;3.25;1.10;;;;;;;12.86;100.00;101293.16;5022334;28;20423;-89
2023/10/05 09:36:06;;;;;;;4.10;1.20;;;;;;;13.01;100.00;101308.69;5024184;28;20444;-89
2023/10/05 09:38:38;;;;;;;5.95;1.15;;;;;;;13.06;100.00;101308.66;5021101;28;20438;-91
2023/10/05 09:41:08;;;;;;;4.55;1.20;;;;;;;13.12;100.00;101308.59;5016363;28;20432;-91
2023/10/05 09:43:40;;;;;;;5.80;1.27;;;;;;;13.19;100.00;101307.22;5021817;28;20433;-92
2023/10/05 09:46:10;;;;;;;4.85;1.10;;;;;;;13.28;100.00;101315.63;5023071;28;20435;-90
2023/10/05 09:48:40;;;;;;;4.60;1.20;;;;;;;13.34;100.00;101313.69;5019732;28;20435;-89
2023/10/05 09:51:11;;;;;;;3.43;1.10;;;;;;;13.33;100.00;101318.34;5019239;28;20429;-91
2023/10/05 09:53:43;;;;;;;6.20;1.20;;;;;;;13.38;100.00;101321.09;5021919;28;20450;-91
2023/10/05 09:56:57;;;;;;;3.10;1.08;;;;;;;13.57;100.00;101328.59;5023950;28;20815;-90
2023/10/05 10:02:43;;;;;;;3.30;1.02;;;;;;;13.69;100.00;101317.31;5008133;28;20433;-92
2023/10/05 10:05:29;;;;;;;3.90;1.15;;;;;;;13.93;100.00;101320.94;5019926;28;20780;-88
2023/10/05 10:08:09;;;;;;;6.68;1.45;;;;;;;14.05;100.00;101331.50;5023734;28;20441;-90
2023/10/05 10:10:40;;;;;;;4.90;1.20;;;;;;;14.17;100.00;101327.56;5023150;28;20616;-90
2023/10/05 10:13:11;;;;;;;5.22;1.20;;;;;;;14.17;100.00;101333.88;5021219;28;21607;-87
2023/10/05 10:15:49;;;;;;;7.03;1.30;;;;;;;14.28;100.00;101345.53;5017007;28;20413;-89
2023/10/05 10:18:21;;;;;;;8.15;1.50;;;;;;;14.25;100.00;101344.19;5018700;28;20429;-91
2023/10/05 10:20:56;;;;;;;9.25;1.60;;;;;;;14.34;100.00;101338.91;5023990;28;20433;-88
2023/10/05 10:23:35;;;;;;;7.00;1.25;;;;;;;14.50;100.00;101336.00;5021221;28;20550;-88
2023/10/05 10:26:07;;;;;;;6.45;1.27;;;;;;;14.49;100.00;101339.88;5018561;28;20424;-89
2023/10/05 10:28:49;;;;;;;7.45;1.50;;;;;;;14.64;100.00;101334.25;5035031;28;20456;-90
2023/10/05 10:31:30;;;;;;;7.83;1.37;;;;;;;14.48;100.00;101347.25;5018402;28;20443;-88
2023/10/05 10:34:17;;;;;;;7.85;1.55;;;;;;;14.35;100.00;101350.66;5016939;28;20526;-89
2023/10/05 10:36:52;;;;;;;6.60;1.50;;;;;;;14.23;100.00;101357.34;5020555;28;20440;-88
2023/10/05 10:39:28;;;;;;;8.30;1.40;;;;;;;14.11;100.00;101346.78;5020421;28;20436;-89
2023/10/05 10:42:08;;;;;;;7.60;1.60;;;;;;;14.10;100.00;101360.75;5037064;28;20423;-91
2023/10/05 10:44:56;;;;;;;9.65;1.83;;;;;;;14.20;100.00;101360.66;5018204;28;20506;-90
2023/10/05 10:47:35;;;;;;;9.60;1.65;;;;;;;14.22;100.00;101374.88;5016946;28;20438;-90
2023/10/05 10:50:16;;;;;;;10.05;1.60;;;;;;;14.09;100.00;101359.94;5023259;28;20439;-89
2023/10/05 10:52:44;;;;;;;8.10;1.63;;;;;;;14.09;100.00;101370.88;5014448;28;20436;-89
2023/10/05 10:55:17;;;;;;;8.80;1.70;;;;;;;14.33;100.00;101369.31;5018026;28;20433;-91
2023/10/05 10:57:53;;;;;;;10.05;1.83;;;;;;;14.37;100.00;101368.44;5011297;28;20436;-92
2023/10/05 11:03:26;;;;;;;7.72;1.42;;;;;;;14.36;100.00;101374.22;4970707;28;22166;-87
2023/10/05 11:05:54;;;;;;;8.93;1.60;;;;;;;14.28;100.00;101370.19;5018971;28;20426;-90
2023/10/05 11:08:23;;;;;;;8.40;1.80;;;;;;;14.30;100.00;101365.22;5023164;28;20459;-91
2023/10/05 11:11:08;;;;;;;7.23;1.60;;;;;;;14.41;100.00;101371.44;5014076;28;20495;-90
2023/10/05 11:13:43;;;;;;;8.00;1.48;;;;;;;14.61;100.00;101373.13;5018169;28;20437;-90
2023/10/05 11:16:11;;;;;;;9.05;1.70;;;;;;;14.65;100.00;101370.66;5018858;28;20900;-89
2023/10/05 11:18:57;;;;;;;8.90;1.83;;;;;;;14.71;100.00;101364.84;5019579;28;21830;-91
2023/10/05 11:21:27;;;;;;;9.63;2.22;;;;;;;14.77;100.00;101377.38;5016912;28;20436;-90
2023/10/05 11:24:06;;;;;;;8.93;1.52;;;;;;;14.83;100.00;101369.09;5019311;28;20435;-90
2023/10/05 11:27:05;;;;;;;9.63;1.60;;;;;;;14.81;100.00;101361.16;5022083;28;20414;-90
2023/10/05 11:29:48;;;;;;;8.52;1.55;;;;;;;15.02;100.00;101371.88;5024300;28;21012;-92
2023/10/05 11:32:20;;;;;;;8.50;1.27;;;;;;;15.19;100.00;101354.94;5018199;28;20485;-92
2023/10/05 11:34:57;;;;;;;7.63;1.33;;;;;;;14.98;100.00;101368.09;5020481;28;20421;-90
2023/10/05 11:37:27;;;;;;;8.70;1.30;;;;;;;14.86;100.00;101366.59;5025124;28;20430;-91
2023/10/05 11:39:59;;;;;;;9.73;1.60;;;;;;;14.96;100.00;101371.13;5023254;28;20410;-92
2023/10/05 11:42:36;;;;;;;5.85;1.15;;;;;;;15.07;100.00;101369.91;5023057;28;20423;-91
2023/10/05 11:45:16;;;;;;;10.30;1.60;;;;;;;15.03;100.00;101377.06;5025522;28;20420;-91
2023/10/05 11:47:52;;;;;;;9.93;1.52;;;;;;;15.07;100.00;101371.84;5022480;28;20433;-93
2023/10/05 11:50:32;;;;;;;6.30;1.30;;;;;;;15.26;100.00;101369.09;5021722;28;20433;-92
2023/10/05 11:53:06;;;;;;;10.15;1.48;;;;;;;15.30;100.00;101368.25;5017818;28;20911;-92
2023/10/05 11:55:39;;;;;;;5.70;1.50;;;;;;;15.19;100.00;101377.72;5024793;28;21722;-92
2023/10/05 11:58:09;;;;;;;10.95;1.50;;;;;;;15.05;100.00;101372.13;5018505;28;22150;-92
2023/10/05 12:00:37;;;;;;;7.88;1.77;;;;;;;14.95;100.00;101364.03;5018059;28;20901;-89